sensor_id;sensor_type;location;lat;lon;timestamp;temperature;humidity
837;DHT22;400;53.550;9.932;2023-07-29T00:00:28;20.50;1.00
837;DHT22;400;53.550;9.932;2023-07-29T00:02:55;20.50;1.00
837;DHT22;400;53.550;9.932;2023-07-29T00:05:27;20.40;1.00
837;DHT22;400;53.550;9.932;2023-07-29T00:07:58;20.50;1.00
837;DHT22;400;53.550;9.932;2023-07-29T00:10:29;20.40;1.00
837;DHT22;400;53.550;9.932;2023-07-29T00:12:59;20.40;1.00
837;DHT22;400;53.550;9.932;2023-07-29T00:15:29;20.30;1.00
837;DHT22;400;53.550;9.932;2023-07-29T00:17:59;20.30;1.00
837;DHT22;400;53.550;9.932;2023-07-29T00:20:31;20.30;1.00
837;DHT22;400;53.550;9.932;2023-07-29T00:23:01;20.30;1.00
837;DHT22;400;53.550;9.932;2023-07-29T00:25:28;20.30;1.00
837;DHT22;400;53.550;9.932;2023-07-29T00:27:56;20.20;1.00
837;DHT22;400;53.550;9.932;2023-07-29T00:30:23;20.30;1.00
837;DHT22;400;53.550;9.932;2023-07-29T00:32:50;20.20;1.00
837;DHT22;400;53.550;9.932;2023-07-29T00:35:17;20.20;1.00
837;DHT22;400;53.550;9.932;2023-07-29T00:37:45;20.20;1.00
837;DHT22;400;53.550;9.932;2023-07-29T00:40:15;20.20;1.00
837;DHT22;400;53.550;9.932;2023-07-29T00:42:42;20.10;1.00
837;DHT22;400;53.550;9.932;2023-07-29T00:45:10;20.10;1.00
837;DHT22;400;53.550;9.932;2023-07-29T00:47:37;20.10;1.00
837;DHT22;400;53.550;9.932;2023-07-29T00:50:07;20.20;1.00
837;DHT22;400;53.550;9.932;2023-07-29T00:52:34;20.10;1.00
837;DHT22;400;53.550;9.932;2023-07-29T00:55:05;20.20;1.00
837;DHT22;400;53.550;9.932;2023-07-29T00:57:33;20.20;1.00
837;DHT22;400;53.550;9.932;2023-07-29T01:00:02;20.20;1.00
837;DHT22;400;53.550;9.932;2023-07-29T01:02:30;20.20;1.00
837;DHT22;400;53.550;9.932;2023-07-29T01:05:00;20.20;1.00
837;DHT22;400;53.550;9.932;2023-07-29T01:07:30;20.20;1.00
837;DHT22;400;53.550;9.932;2023-07-29T01:10:03;20.20;1.00
837;DHT22;400;53.550;9.932;2023-07-29T01:12:36;20.10;1.00
837;DHT22;400;53.550;9.932;2023-07-29T01:15:11;20.20;1.00
837;DHT22;400;53.550;9.932;2023-07-29T01:17:42;20.20;1.00
837;DHT22;400;53.550;9.932;2023-07-29T01:20:13;20.20;1.00
837;DHT22;400;53.550;9.932;2023-07-29T01:22:41;20.20;1.00
837;DHT22;400;53.550;9.932;2023-07-29T01:25:09;20.20;1.00
837;DHT22;400;53.550;9.932;2023-07-29T01:27:36;20.20;4.80
837;DHT22;400;53.550;9.932;2023-07-29T01:30:04;20.20;12.90
837;DHT22;400;53.550;9.932;2023-07-29T01:32:36;20.20;18.10
837;DHT22;400;53.550;9.932;2023-07-29T01:35:13;20.20;14.40
837;DHT22;400;53.550;9.932;2023-07-29T01:37:42;20.20;31.60
837;DHT22;400;53.550;9.932;2023-07-29T01:40:13;20.20;24.60
837;DHT22;400;53.550;9.932;2023-07-29T01:42:40;20.20;48.90
837;DHT22;400;53.550;9.932;2023-07-29T01:45:07;20.30;46.10
837;DHT22;400;53.550;9.932;2023-07-29T01:47:34;20.20;99.90
837;DHT22;400;53.550;9.932;2023-07-29T01:50:00;20.20;99.90
837;DHT22;400;53.550;9.932;2023-07-29T01:52:29;20.20;99.90
837;DHT22;400;53.550;9.932;2023-07-29T01:54:57;20.10;99.90
837;DHT22;400;53.550;9.932;2023-07-29T01:57:26;20.20;99.90
837;DHT22;400;53.550;9.932;2023-07-29T01:59:53;20.20;99.90
837;DHT22;400;53.550;9.932;2023-07-29T02:02:20;20.20;99.90
837;DHT22;400;53.550;9.932;2023-07-29T02:04:46;20.20;99.90
837;DHT22;400;53.550;9.932;2023-07-29T02:07:16;20.20;99.90
837;DHT22;400;53.550;9.932;2023-07-29T02:09:43;20.20;99.90
837;DHT22;400;53.550;9.932;2023-07-29T02:12:10;20.20;99.90
837;DHT22;400;53.550;9.932;2023-07-29T02:14:38;20.20;99.90
837;DHT22;400;53.550;9.932;2023-07-29T02:17:05;20.20;99.90
837;DHT22;400;53.550;9.932;2023-07-29T02:19:32;20.20;99.90
837;DHT22;400;53.550;9.932;2023-07-29T02:22:00;20.20;99.90
837;DHT22;400;53.550;9.932;2023-07-29T02:24:26;20.20;99.90
837;DHT22;400;53.550;9.932;2023-07-29T02:26:53;20.20;99.90
837;DHT22;400;53.550;9.932;2023-07-29T02:29:20;20.20;99.90
837;DHT22;400;53.550;9.932;2023-07-29T02:31:50;20.20;99.90
837;DHT22;400;53.550;9.932;2023-07-29T02:34:18;20.20;99.90
837;DHT22;400;53.550;9.932;2023-07-29T02:36:44;20.20;99.90
837;DHT22;400;53.550;9.932;2023-07-29T02:39:11;20.10;99.90
837;DHT22;400;53.550;9.932;2023-07-29T02:41:38;20.10;99.90
837;DHT22;400;53.550;9.932;2023-07-29T02:44:05;20.10;99.90
837;DHT22;400;53.550;9.932;2023-07-29T02:46:32;20.00;99.90
837;DHT22;400;53.550;9.932;2023-07-29T02:49:01;20.00;99.90
837;DHT22;400;53.550;9.932;2023-07-29T02:51:28;20.10;99.90
837;DHT22;400;53.550;9.932;2023-07-29T02:53:55;20.00;99.90
837;DHT22;400;53.550;9.932;2023-07-29T02:56:22;20.10;99.90
837;DHT22;400;53.550;9.932;2023-07-29T02:58:50;20.10;99.90
837;DHT22;400;53.550;9.932;2023-07-29T03:01:20;20.10;99.90
837;DHT22;400;53.550;9.932;2023-07-29T03:03:47;20.10;99.90
837;DHT22;400;53.550;9.932;2023-07-29T03:06:15;20.10;99.90
837;DHT22;400;53.550;9.932;2023-07-29T03:08:42;20.00;99.90
837;DHT22;400;53.550;9.932;2023-07-29T03:11:10;20.00;99.90
837;DHT22;400;53.550;9.932;2023-07-29T03:13:37;19.90;99.90
837;DHT22;400;53.550;9.932;2023-07-29T03:16:07;19.90;99.90
837;DHT22;400;53.550;9.932;2023-07-29T03:18:34;20.00;99.90
837;DHT22;400;53.550;9.932;2023-07-29T03:21:01;19.90;99.90
837;DHT22;400;53.550;9.932;2023-07-29T03:23:30;19.90;99.90
837;DHT22;400;53.550;9.932;2023-07-29T03:25:57;19.80;99.90
837;DHT22;400;53.550;9.932;2023-07-29T03:28:25;19.80;99.90
837;DHT22;400;53.550;9.932;2023-07-29T03:30:53;19.80;99.90
837;DHT22;400;53.550;9.932;2023-07-29T03:33:20;19.80;99.90
837;DHT22;400;53.550;9.932;2023-07-29T03:35:47;19.80;99.90
837;DHT22;400;53.550;9.932;2023-07-29T03:38:14;19.80;99.90
837;DHT22;400;53.550;9.932;2023-07-29T03:40:43;19.80;99.90
837;DHT22;400;53.550;9.932;2023-07-29T03:43:10;19.80;99.90
837;DHT22;400;53.550;9.932;2023-07-29T03:45:37;19.80;99.90
837;DHT22;400;53.550;9.932;2023-07-29T03:48:05;19.80;99.90
837;DHT22;400;53.550;9.932;2023-07-29T03:50:34;19.80;99.90
837;DHT22;400;53.550;9.932;2023-07-29T03:53:01;19.80;99.90
837;DHT22;400;53.550;9.932;2023-07-29T03:55:28;19.90;99.90
837;DHT22;400;53.550;9.932;2023-07-29T03:57:57;19.80;99.90
837;DHT22;400;53.550;9.932;2023-07-29T04:00:25;19.80;99.90
837;DHT22;400;53.550;9.932;2023-07-29T04:02:53;19.80;99.90
837;DHT22;400;53.550;9.932;2023-07-29T04:05:20;19.80;99.90
837;DHT22;400;53.550;9.932;2023-07-29T04:07:46;19.70;99.90
837;DHT22;400;53.550;9.932;2023-07-29T04:10:13;19.70;99.90
837;DHT22;400;53.550;9.932;2023-07-29T04:12:40;19.70;99.90
837;DHT22;400;53.550;9.932;2023-07-29T04:15:09;19.60;99.90
837;DHT22;400;53.550;9.932;2023-07-29T04:17:36;19.60;99.90
837;DHT22;400;53.550;9.932;2023-07-29T04:20:03;19.70;99.90
837;DHT22;400;53.550;9.932;2023-07-29T04:22:30;19.70;99.90
837;DHT22;400;53.550;9.932;2023-07-29T04:24:57;19.60;99.90
837;DHT22;400;53.550;9.932;2023-07-29T04:27:24;19.70;99.90
837;DHT22;400;53.550;9.932;2023-07-29T04:29:50;19.60;99.90
837;DHT22;400;53.550;9.932;2023-07-29T04:32:18;19.50;99.90
837;DHT22;400;53.550;9.932;2023-07-29T04:34:45;19.50;99.90
837;DHT22;400;53.550;9.932;2023-07-29T04:37:12;19.60;99.90
837;DHT22;400;53.550;9.932;2023-07-29T04:39:39;19.60;99.90
837;DHT22;400;53.550;9.932;2023-07-29T04:42:06;19.60;99.90
837;DHT22;400;53.550;9.932;2023-07-29T04:44:33;19.60;99.90
837;DHT22;400;53.550;9.932;2023-07-29T04:47:00;19.60;99.90
837;DHT22;400;53.550;9.932;2023-07-29T04:49:28;19.70;99.90
837;DHT22;400;53.550;9.932;2023-07-29T04:51:55;19.70;99.90
837;DHT22;400;53.550;9.932;2023-07-29T04:54:21;19.60;99.90
837;DHT22;400;53.550;9.932;2023-07-29T04:56:48;19.60;99.90
837;DHT22;400;53.550;9.932;2023-07-29T04:59:15;19.60;99.90
837;DHT22;400;53.550;9.932;2023-07-29T05:01:42;19.50;99.90
837;DHT22;400;53.550;9.932;2023-07-29T05:04:09;19.50;1.00
837;DHT22;400;53.550;9.932;2023-07-29T05:06:37;19.60;99.90
837;DHT22;400;53.550;9.932;2023-07-29T05:09:14;19.60;99.90
837;DHT22;400;53.550;9.932;2023-07-29T05:11:41;19.60;99.90
837;DHT22;400;53.550;9.932;2023-07-29T05:14:09;19.70;99.90
837;DHT22;400;53.550;9.932;2023-07-29T05:16:35;19.70;99.90
837;DHT22;400;53.550;9.932;2023-07-29T05:19:02;19.60;99.90
837;DHT22;400;53.550;9.932;2023-07-29T05:21:29;19.80;99.90
837;DHT22;400;53.550;9.932;2023-07-29T05:23:58;19.80;99.90
837;DHT22;400;53.550;9.932;2023-07-29T05:26:24;19.90;99.90
837;DHT22;400;53.550;9.932;2023-07-29T05:28:51;20.00;99.90
837;DHT22;400;53.550;9.932;2023-07-29T05:31:18;20.10;99.90
837;DHT22;400;53.550;9.932;2023-07-29T05:33:45;20.20;99.90
837;DHT22;400;53.550;9.932;2023-07-29T05:36:12;20.30;99.90
837;DHT22;400;53.550;9.932;2023-07-29T05:38:39;20.40;99.90
837;DHT22;400;53.550;9.932;2023-07-29T05:41:07;20.40;99.90
837;DHT22;400;53.550;9.932;2023-07-29T05:43:34;20.40;90.70
837;DHT22;400;53.550;9.932;2023-07-29T05:46:00;20.40;70.70
837;DHT22;400;53.550;9.932;2023-07-29T05:48:27;20.40;58.90
837;DHT22;400;53.550;9.932;2023-07-29T05:50:54;20.50;74.50
837;DHT22;400;53.550;9.932;2023-07-29T05:53:21;20.50;59.20
837;DHT22;400;53.550;9.932;2023-07-29T05:55:47;20.50;58.00
837;DHT22;400;53.550;9.932;2023-07-29T05:58:16;20.50;20.60
837;DHT22;400;53.550;9.932;2023-07-29T06:00:42;20.40;22.40
837;DHT22;400;53.550;9.932;2023-07-29T06:03:09;20.30;35.80
837;DHT22;400;53.550;9.932;2023-07-29T06:05:36;20.30;28.00
837;DHT22;400;53.550;9.932;2023-07-29T06:08:03;20.40;31.40
837;DHT22;400;53.550;9.932;2023-07-29T06:10:30;20.30;37.20
837;DHT22;400;53.550;9.932;2023-07-29T06:12:56;20.40;67.60
837;DHT22;400;53.550;9.932;2023-07-29T06:15:25;20.50;43.00
837;DHT22;400;53.550;9.932;2023-07-29T06:17:51;20.60;35.90
837;DHT22;400;53.550;9.932;2023-07-29T06:20:18;20.60;14.00
837;DHT22;400;53.550;9.932;2023-07-29T06:22:45;20.60;1.20
837;DHT22;400;53.550;9.932;2023-07-29T06:25:12;20.60;10.60
837;DHT22;400;53.550;9.932;2023-07-29T06:27:38;20.40;1.00
837;DHT22;400;53.550;9.932;2023-07-29T06:30:06;20.50;22.90
837;DHT22;400;53.550;9.932;2023-07-29T06:32:36;20.60;24.40
837;DHT22;400;53.550;9.932;2023-07-29T06:35:05;20.70;12.00
837;DHT22;400;53.550;9.932;2023-07-29T06:37:35;20.70;1.00
837;DHT22;400;53.550;9.932;2023-07-29T06:40:02;20.80;1.00
837;DHT22;400;53.550;9.932;2023-07-29T06:42:29;20.90;1.00
837;DHT22;400;53.550;9.932;2023-07-29T06:44:56;20.80;1.00
837;DHT22;400;53.550;9.932;2023-07-29T06:47:23;20.80;1.00
837;DHT22;400;53.550;9.932;2023-07-29T06:49:51;20.80;1.00
837;DHT22;400;53.550;9.932;2023-07-29T06:52:18;20.70;1.00
837;DHT22;400;53.550;9.932;2023-07-29T06:54:44;20.70;1.00
837;DHT22;400;53.550;9.932;2023-07-29T06:57:11;20.70;1.00
837;DHT22;400;53.550;9.932;2023-07-29T06:59:40;20.60;1.00
837;DHT22;400;53.550;9.932;2023-07-29T07:02:08;20.50;1.00
837;DHT22;400;53.550;9.932;2023-07-29T07:04:34;20.60;21.70
837;DHT22;400;53.550;9.932;2023-07-29T07:07:03;20.70;12.40
837;DHT22;400;53.550;9.932;2023-07-29T07:09:30;20.80;1.00
837;DHT22;400;53.550;9.932;2023-07-29T07:11:56;20.90;1.00
837;DHT22;400;53.550;9.932;2023-07-29T07:14:23;20.90;1.00
837;DHT22;400;53.550;9.932;2023-07-29T07:16:51;20.90;1.00
837;DHT22;400;53.550;9.932;2023-07-29T07:19:17;21.00;1.00
837;DHT22;400;53.550;9.932;2023-07-29T07:21:44;21.00;1.00
837;DHT22;400;53.550;9.932;2023-07-29T07:24:13;21.00;1.00
837;DHT22;400;53.550;9.932;2023-07-29T07:26:44;21.00;1.00
837;DHT22;400;53.550;9.932;2023-07-29T07:29:11;20.90;1.00
837;DHT22;400;53.550;9.932;2023-07-29T07:31:38;21.00;1.00
837;DHT22;400;53.550;9.932;2023-07-29T07:34:05;21.00;1.00
837;DHT22;400;53.550;9.932;2023-07-29T07:36:32;21.00;1.00
837;DHT22;400;53.550;9.932;2023-07-29T07:38:59;20.90;1.00
837;DHT22;400;53.550;9.932;2023-07-29T07:41:30;21.00;1.00
837;DHT22;400;53.550;9.932;2023-07-29T07:43:58;21.00;1.00
837;DHT22;400;53.550;9.932;2023-07-29T07:46:33;21.00;1.00
837;DHT22;400;53.550;9.932;2023-07-29T07:49:11;20.90;1.00
837;DHT22;400;53.550;9.932;2023-07-29T07:51:44;21.00;1.00
837;DHT22;400;53.550;9.932;2023-07-29T07:54:13;21.00;1.00
837;DHT22;400;53.550;9.932;2023-07-29T07:56:47;20.90;1.00
837;DHT22;400;53.550;9.932;2023-07-29T07:59:14;20.80;1.00
837;DHT22;400;53.550;9.932;2023-07-29T08:01:40;20.80;1.00
837;DHT22;400;53.550;9.932;2023-07-29T08:04:08;20.90;1.00
837;DHT22;400;53.550;9.932;2023-07-29T08:06:36;20.90;1.00
837;DHT22;400;53.550;9.932;2023-07-29T08:09:07;20.80;1.00
837;DHT22;400;53.550;9.932;2023-07-29T08:11:35;20.90;8.10
837;DHT22;400;53.550;9.932;2023-07-29T08:14:07;20.90;3.40
837;DHT22;400;53.550;9.932;2023-07-29T08:16:39;20.90;3.20
837;DHT22;400;53.550;9.932;2023-07-29T08:19:10;20.90;1.00
837;DHT22;400;53.550;9.932;2023-07-29T08:21:39;20.90;2.20
837;DHT22;400;53.550;9.932;2023-07-29T08:24:07;20.80;5.20
837;DHT22;400;53.550;9.932;2023-07-29T08:26:33;20.90;11.30
837;DHT22;400;53.550;9.932;2023-07-29T08:29:00;20.90;19.90
837;DHT22;400;53.550;9.932;2023-07-29T08:31:29;20.90;14.40
837;DHT22;400;53.550;9.932;2023-07-29T08:33:59;21.10;13.40
837;DHT22;400;53.550;9.932;2023-07-29T08:36:26;21.20;1.00
837;DHT22;400;53.550;9.932;2023-07-29T08:38:53;21.30;1.00
837;DHT22;400;53.550;9.932;2023-07-29T08:41:24;21.30;1.00
837;DHT22;400;53.550;9.932;2023-07-29T08:43:56;21.10;1.00
837;DHT22;400;53.550;9.932;2023-07-29T08:46:28;21.10;1.00
837;DHT22;400;53.550;9.932;2023-07-29T08:48:55;21.10;1.00
837;DHT22;400;53.550;9.932;2023-07-29T08:51:23;21.10;1.00
837;DHT22;400;53.550;9.932;2023-07-29T08:53:51;20.90;1.00
837;DHT22;400;53.550;9.932;2023-07-29T08:56:18;20.90;1.00
837;DHT22;400;53.550;9.932;2023-07-29T08:58:47;21.00;9.80
837;DHT22;400;53.550;9.932;2023-07-29T09:01:16;21.00;1.00
837;DHT22;400;53.550;9.932;2023-07-29T09:03:45;21.10;1.00
837;DHT22;400;53.550;9.932;2023-07-29T09:06:12;21.40;1.00
837;DHT22;400;53.550;9.932;2023-07-29T09:08:41;21.40;1.00
837;DHT22;400;53.550;9.932;2023-07-29T09:11:08;21.60;1.00
837;DHT22;400;53.550;9.932;2023-07-29T09:13:37;21.80;1.00
837;DHT22;400;53.550;9.932;2023-07-29T09:16:04;21.80;1.00
837;DHT22;400;53.550;9.932;2023-07-29T09:18:31;21.60;1.00
837;DHT22;400;53.550;9.932;2023-07-29T09:21:00;21.50;1.00
837;DHT22;400;53.550;9.932;2023-07-29T09:23:28;21.70;1.00
837;DHT22;400;53.550;9.932;2023-07-29T09:26:00;21.90;1.00
837;DHT22;400;53.550;9.932;2023-07-29T09:28:33;22.00;1.00
837;DHT22;400;53.550;9.932;2023-07-29T09:31:01;22.10;1.00
837;DHT22;400;53.550;9.932;2023-07-29T09:33:28;22.20;1.00
837;DHT22;400;53.550;9.932;2023-07-29T09:35:57;22.10;1.00
837;DHT22;400;53.550;9.932;2023-07-29T09:38:28;22.00;1.00
837;DHT22;400;53.550;9.932;2023-07-29T09:40:58;22.10;1.00
837;DHT22;400;53.550;9.932;2023-07-29T09:43:30;22.10;1.00
837;DHT22;400;53.550;9.932;2023-07-29T09:46:00;22.20;1.00
837;DHT22;400;53.550;9.932;2023-07-29T09:48:27;22.20;1.00
837;DHT22;400;53.550;9.932;2023-07-29T09:50:55;22.40;1.00
837;DHT22;400;53.550;9.932;2023-07-29T09:53:22;22.20;1.00
837;DHT22;400;53.550;9.932;2023-07-29T09:55:50;22.20;1.00
837;DHT22;400;53.550;9.932;2023-07-29T09:58:22;22.10;1.00
837;DHT22;400;53.550;9.932;2023-07-29T10:00:52;22.20;1.00
837;DHT22;400;53.550;9.932;2023-07-29T10:03:21;22.40;1.00
837;DHT22;400;53.550;9.932;2023-07-29T10:05:48;22.60;1.00
837;DHT22;400;53.550;9.932;2023-07-29T10:08:16;22.70;1.00
837;DHT22;400;53.550;9.932;2023-07-29T10:10:43;22.90;1.00
837;DHT22;400;53.550;9.932;2023-07-29T10:13:12;23.10;1.00
837;DHT22;400;53.550;9.932;2023-07-29T10:15:40;23.10;1.00
837;DHT22;400;53.550;9.932;2023-07-29T10:18:07;23.00;1.00
837;DHT22;400;53.550;9.932;2023-07-29T10:20:36;22.70;1.00
837;DHT22;400;53.550;9.932;2023-07-29T10:23:07;22.90;1.00
837;DHT22;400;53.550;9.932;2023-07-29T10:25:41;22.80;1.00
837;DHT22;400;53.550;9.932;2023-07-29T10:28:15;22.70;1.00
837;DHT22;400;53.550;9.932;2023-07-29T10:30:47;22.50;1.00
837;DHT22;400;53.550;9.932;2023-07-29T10:33:18;22.50;1.00
837;DHT22;400;53.550;9.932;2023-07-29T10:35:49;22.50;1.00
837;DHT22;400;53.550;9.932;2023-07-29T10:38:22;22.50;1.00
837;DHT22;400;53.550;9.932;2023-07-29T10:40:56;22.70;1.00
837;DHT22;400;53.550;9.932;2023-07-29T10:43:36;22.70;1.00
837;DHT22;400;53.550;9.932;2023-07-29T10:46:17;22.70;1.00
837;DHT22;400;53.550;9.932;2023-07-29T10:48:53;23.00;1.00
837;DHT22;400;53.550;9.932;2023-07-29T10:51:23;23.10;1.00
837;DHT22;400;53.550;9.932;2023-07-29T10:53:57;23.10;1.00
837;DHT22;400;53.550;9.932;2023-07-29T10:56:29;23.10;1.00
837;DHT22;400;53.550;9.932;2023-07-29T10:59:00;23.10;1.00
837;DHT22;400;53.550;9.932;2023-07-29T11:01:30;23.10;1.00
837;DHT22;400;53.550;9.932;2023-07-29T11:04:22;22.90;1.00
837;DHT22;400;53.550;9.932;2023-07-29T11:07:21;22.80;1.00
837;DHT22;400;53.550;9.932;2023-07-29T11:10:00;22.80;1.00
837;DHT22;400;53.550;9.932;2023-07-29T11:12:43;22.80;1.00
837;DHT22;400;53.550;9.932;2023-07-29T11:15:19;22.70;1.00
837;DHT22;400;53.550;9.932;2023-07-29T11:17:48;22.80;1.00
837;DHT22;400;53.550;9.932;2023-07-29T11:20:15;22.90;1.00
837;DHT22;400;53.550;9.932;2023-07-29T11:22:44;22.80;1.00
837;DHT22;400;53.550;9.932;2023-07-29T11:25:14;22.80;1.00
837;DHT22;400;53.550;9.932;2023-07-29T11:27:41;22.80;1.00
837;DHT22;400;53.550;9.932;2023-07-29T11:30:10;22.90;1.00
837;DHT22;400;53.550;9.932;2023-07-29T11:32:40;23.00;1.00
837;DHT22;400;53.550;9.932;2023-07-29T11:35:08;23.10;1.00
837;DHT22;400;53.550;9.932;2023-07-29T11:37:44;23.10;1.00
837;DHT22;400;53.550;9.932;2023-07-29T11:40:14;23.20;1.00
837;DHT22;400;53.550;9.932;2023-07-29T11:42:45;23.40;1.00
837;DHT22;400;53.550;9.932;2023-07-29T11:45:18;23.60;1.00
837;DHT22;400;53.550;9.932;2023-07-29T11:47:52;23.80;1.00
837;DHT22;400;53.550;9.932;2023-07-29T11:50:24;23.80;1.00
837;DHT22;400;53.550;9.932;2023-07-29T11:52:58;23.90;1.00
837;DHT22;400;53.550;9.932;2023-07-29T11:55:27;24.20;1.00
837;DHT22;400;53.550;9.932;2023-07-29T11:57:56;24.20;1.00
837;DHT22;400;53.550;9.932;2023-07-29T12:00:32;24.20;1.00
837;DHT22;400;53.550;9.932;2023-07-29T12:03:02;24.20;1.00
837;DHT22;400;53.550;9.932;2023-07-29T12:05:29;23.80;1.00
837;DHT22;400;53.550;9.932;2023-07-29T12:08:00;24.00;1.00
837;DHT22;400;53.550;9.932;2023-07-29T12:10:26;23.90;1.00
837;DHT22;400;53.550;9.932;2023-07-29T12:12:53;23.70;1.00
837;DHT22;400;53.550;9.932;2023-07-29T12:15:25;23.80;1.00
837;DHT22;400;53.550;9.932;2023-07-29T12:17:54;23.60;1.00
837;DHT22;400;53.550;9.932;2023-07-29T12:20:26;23.60;1.00
837;DHT22;400;53.550;9.932;2023-07-29T12:22:54;23.70;1.00
837;DHT22;400;53.550;9.932;2023-07-29T12:25:22;23.60;1.00
837;DHT22;400;53.550;9.932;2023-07-29T12:27:50;23.70;1.00
837;DHT22;400;53.550;9.932;2023-07-29T12:30:23;23.80;1.00
837;DHT22;400;53.550;9.932;2023-07-29T12:32:53;23.80;1.00
837;DHT22;400;53.550;9.932;2023-07-29T12:35:19;23.90;1.00
837;DHT22;400;53.550;9.932;2023-07-29T12:37:58;23.80;1.00
837;DHT22;400;53.550;9.932;2023-07-29T12:40:27;23.70;1.00
837;DHT22;400;53.550;9.932;2023-07-29T12:42:54;23.50;1.00
837;DHT22;400;53.550;9.932;2023-07-29T12:45:21;23.70;1.00
837;DHT22;400;53.550;9.932;2023-07-29T12:47:50;24.00;1.00
837;DHT22;400;53.550;9.932;2023-07-29T12:50:21;24.20;1.00
837;DHT22;400;53.550;9.932;2023-07-29T12:52:53;24.00;1.00
837;DHT22;400;53.550;9.932;2023-07-29T12:55:20;24.00;1.00
837;DHT22;400;53.550;9.932;2023-07-29T12:57:47;24.20;1.00
837;DHT22;400;53.550;9.932;2023-07-29T13:00:14;24.20;1.00
837;DHT22;400;53.550;9.932;2023-07-29T13:02:41;24.40;1.00
837;DHT22;400;53.550;9.932;2023-07-29T13:05:10;24.40;1.00
837;DHT22;400;53.550;9.932;2023-07-29T13:07:42;24.60;1.00
837;DHT22;400;53.550;9.932;2023-07-29T13:10:14;24.70;1.00
837;DHT22;400;53.550;9.932;2023-07-29T13:12:51;24.70;1.00
837;DHT22;400;53.550;9.932;2023-07-29T13:15:29;24.70;1.00
837;DHT22;400;53.550;9.932;2023-07-29T13:17:59;24.80;1.00
837;DHT22;400;53.550;9.932;2023-07-29T13:20:26;24.40;1.00
837;DHT22;400;53.550;9.932;2023-07-29T13:22:55;24.50;1.00
837;DHT22;400;53.550;9.932;2023-07-29T13:25:27;24.60;1.00
837;DHT22;400;53.550;9.932;2023-07-29T13:27:56;24.50;1.00
837;DHT22;400;53.550;9.932;2023-07-29T13:30:26;24.50;1.00
837;DHT22;400;53.550;9.932;2023-07-29T13:32:58;24.60;1.00
837;DHT22;400;53.550;9.932;2023-07-29T13:35:26;24.80;1.00
837;DHT22;400;53.550;9.932;2023-07-29T13:37:56;24.80;1.00
837;DHT22;400;53.550;9.932;2023-07-29T13:40:28;24.90;1.00
837;DHT22;400;53.550;9.932;2023-07-29T13:43:01;24.80;1.00
837;DHT22;400;53.550;9.932;2023-07-29T13:45:33;24.60;1.00
837;DHT22;400;53.550;9.932;2023-07-29T13:48:05;24.60;1.00
837;DHT22;400;53.550;9.932;2023-07-29T13:50:35;24.50;1.00
837;DHT22;400;53.550;9.932;2023-07-29T13:53:02;24.30;1.00
837;DHT22;400;53.550;9.932;2023-07-29T13:55:30;24.20;1.00
837;DHT22;400;53.550;9.932;2023-07-29T13:58:00;24.50;1.00
837;DHT22;400;53.550;9.932;2023-07-29T14:00:29;24.80;1.00
837;DHT22;400;53.550;9.932;2023-07-29T14:02:56;24.80;1.00
837;DHT22;400;53.550;9.932;2023-07-29T14:05:24;24.50;1.00
837;DHT22;400;53.550;9.932;2023-07-29T14:07:53;24.40;1.00
837;DHT22;400;53.550;9.932;2023-07-29T14:10:23;24.40;1.00
837;DHT22;400;53.550;9.932;2023-07-29T14:12:59;24.40;1.00
837;DHT22;400;53.550;9.932;2023-07-29T14:15:29;24.50;1.00
837;DHT22;400;53.550;9.932;2023-07-29T14:17:57;24.20;1.00
837;DHT22;400;53.550;9.932;2023-07-29T14:20:28;24.40;1.00
837;DHT22;400;53.550;9.932;2023-07-29T14:22:55;24.50;1.00
837;DHT22;400;53.550;9.932;2023-07-29T14:25:22;24.40;1.00
837;DHT22;400;53.550;9.932;2023-07-29T14:27:50;24.50;1.00
837;DHT22;400;53.550;9.932;2023-07-29T14:30:24;24.30;1.00
837;DHT22;400;53.550;9.932;2023-07-29T14:32:50;24.40;1.00
837;DHT22;400;53.550;9.932;2023-07-29T14:35:17;24.60;1.00
837;DHT22;400;53.550;9.932;2023-07-29T14:37:47;24.40;1.00
837;DHT22;400;53.550;9.932;2023-07-29T14:40:18;24.50;1.00
837;DHT22;400;53.550;9.932;2023-07-29T14:42:47;24.40;1.00
837;DHT22;400;53.550;9.932;2023-07-29T14:45:14;24.50;1.00
837;DHT22;400;53.550;9.932;2023-07-29T14:47:44;24.70;1.00
837;DHT22;400;53.550;9.932;2023-07-29T14:50:11;24.70;1.00
837;DHT22;400;53.550;9.932;2023-07-29T14:52:38;24.80;1.00
837;DHT22;400;53.550;9.932;2023-07-29T14:55:08;24.70;1.00
837;DHT22;400;53.550;9.932;2023-07-29T14:57:35;24.80;1.00
837;DHT22;400;53.550;9.932;2023-07-29T15:00:04;24.90;1.00
837;DHT22;400;53.550;9.932;2023-07-29T15:02:31;24.80;1.00
837;DHT22;400;53.550;9.932;2023-07-29T15:04:59;24.90;1.00
837;DHT22;400;53.550;9.932;2023-07-29T15:07:26;24.70;1.00
837;DHT22;400;53.550;9.932;2023-07-29T15:09:53;24.50;1.00
837;DHT22;400;53.550;9.932;2023-07-29T15:12:27;24.50;1.00
837;DHT22;400;53.550;9.932;2023-07-29T15:14:57;24.40;1.00
837;DHT22;400;53.550;9.932;2023-07-29T15:17:26;24.40;1.00
837;DHT22;400;53.550;9.932;2023-07-29T15:19:56;24.40;1.00
837;DHT22;400;53.550;9.932;2023-07-29T15:22:29;24.30;1.00
837;DHT22;400;53.550;9.932;2023-07-29T15:25:00;24.40;1.00
837;DHT22;400;53.550;9.932;2023-07-29T15:27:32;24.40;1.00
837;DHT22;400;53.550;9.932;2023-07-29T15:30:03;24.60;1.00
837;DHT22;400;53.550;9.932;2023-07-29T15:32:34;24.60;1.00
837;DHT22;400;53.550;9.932;2023-07-29T15:35:04;24.60;1.00
837;DHT22;400;53.550;9.932;2023-07-29T15:37:35;24.70;1.00
837;DHT22;400;53.550;9.932;2023-07-29T15:40:06;24.80;1.00
837;DHT22;400;53.550;9.932;2023-07-29T15:42:33;24.80;1.00
837;DHT22;400;53.550;9.932;2023-07-29T15:45:00;24.60;1.00
837;DHT22;400;53.550;9.932;2023-07-29T15:47:27;24.70;1.00
837;DHT22;400;53.550;9.932;2023-07-29T15:49:58;24.60;1.00
837;DHT22;400;53.550;9.932;2023-07-29T15:52:28;24.50;1.00
837;DHT22;400;53.550;9.932;2023-07-29T15:54:58;24.40;1.00
837;DHT22;400;53.550;9.932;2023-07-29T15:57:25;24.20;1.00
837;DHT22;400;53.550;9.932;2023-07-29T15:59:53;24.20;1.00
837;DHT22;400;53.550;9.932;2023-07-29T16:02:23;24.20;1.00
837;DHT22;400;53.550;9.932;2023-07-29T16:04:52;24.10;1.00
837;DHT22;400;53.550;9.932;2023-07-29T16:07:21;24.10;1.00
837;DHT22;400;53.550;9.932;2023-07-29T16:09:49;23.80;1.00
837;DHT22;400;53.550;9.932;2023-07-29T16:12:18;23.80;1.00
837;DHT22;400;53.550;9.932;2023-07-29T16:14:45;23.00;1.00
837;DHT22;400;53.550;9.932;2023-07-29T16:17:13;22.40;1.00
837;DHT22;400;53.550;9.932;2023-07-29T16:19:53;21.80;1.00
837;DHT22;400;53.550;9.932;2023-07-29T16:22:20;21.40;1.00
837;DHT22;400;53.550;9.932;2023-07-29T16:24:53;21.40;1.00
837;DHT22;400;53.550;9.932;2023-07-29T16:27:23;21.20;1.00
837;DHT22;400;53.550;9.932;2023-07-29T16:29:55;21.40;1.00
837;DHT22;400;53.550;9.932;2023-07-29T16:32:26;21.10;1.00
837;DHT22;400;53.550;9.932;2023-07-29T16:34:53;21.20;1.00
837;DHT22;400;53.550;9.932;2023-07-29T16:37:24;21.10;1.00
837;DHT22;400;53.550;9.932;2023-07-29T16:39:51;21.10;1.00
837;DHT22;400;53.550;9.932;2023-07-29T16:42:18;21.10;1.00
837;DHT22;400;53.550;9.932;2023-07-29T16:44:48;21.10;1.00
837;DHT22;400;53.550;9.932;2023-07-29T16:47:23;21.00;1.00
837;DHT22;400;53.550;9.932;2023-07-29T16:49:57;21.00;1.00
837;DHT22;400;53.550;9.932;2023-07-29T16:52:31;21.10;1.00
837;DHT22;400;53.550;9.932;2023-07-29T16:55:03;21.00;1.00
837;DHT22;400;53.550;9.932;2023-07-29T16:57:33;20.90;1.00